Airfield :
LOGIN :

Register | Disclaimer

   EN    FR    IT 

 










Legend :    VFR   Marginal VFR   IFR   Intensive IFR   Very Intensive IFR
Visi :
Ceiling :
>= 8 km
>= 3000ft
5 to 8 km
1000 to 3000 ft
1500m to 5 km
500 to 1000 ft
800 to 1500m
200 to 500 ft
< 800m
< 200 ft
Symbols :   Thunderstorms  Fog  Heavy snow  Heavy precipitations  Wind > 20 kt
SIGMETs :     Misc.  Thunderstorms  Icing  Turbulence  Mountain Waves  Volcanic Ashes






- Airport Elevation : 622 ft
- IATA code : BRS


EGGD - Bristol Int.

CURRENT METAR :
  • 150550Z AUTO 11003KT 3900 BR OVC006 09/09 Q1002

EXPIRED METARs :
  • 150520Z AUTO 12001KT 7000 OVC005 09/09 Q1002
  • 150450Z AUTO 16002KT 5000 BR FEW001 OVC007 09/09 Q1002
  • 150420Z AUTO 14005KT 3500 BR FEW001 OVC008 09/09 Q1002
  • 150350Z AUTO 15004KT 4500 BR BKN009 OVC023 09/09 Q1002
  • 150320Z AUTO 06001KT 6000 OVC009 09/09 Q1002

TAF TAF EGGD
Valid from the 15 at 06:00 until the 16 at 06:00 UTC


150458Z 1506/1606 12004KT 6000 BKN006
TEMPO 1506/1511 3000 -DZ BR BKN004
PROB30
TEMPO 1506/1509 0300 FG BKN001
BECMG 1509/1512 9999 FEW006
BECMG 1512/1515 25010KT
PROB40
TEMPO 1512/1518 6000 SHRA BKN012
BECMG 1518/1521 15010KT
BECMG 1521/1524 8000 -RA BKN010
TEMPO 1522/1605 16016G26KT 4000 RADZ BKN004
BECMG 1604/1606 27012KT 9999 NSW SCT010
ATIS : +44 1275 473 666



MET'MAP, your aeronautical weather chart ! - Copyright ORBIFLY December 2007 - Disclaimer

ORBIFLY MET'MAP TEAM :

Programming & Development : Alexandra Zaïnal
Concept & Development : Baudouin d'Aumeries
Co-Development & Prog : Marc-Olivier Méhu
Technical & hardware support : Manuel Goepfert

Contact : metmap@orbifly.com




SOURCES & CREDITS :

   NOAA